sensor_id;sensor_type;location;lat;lon;timestamp;temperature;humidity
64012;DHT22;50211;52.768;12.124;2022-11-20T00:01:28;0.50;99.90
64012;DHT22;50211;52.768;12.124;2022-11-20T00:03:55;0.50;99.90
64012;DHT22;50211;52.768;12.124;2022-11-20T00:06:22;0.50;99.90
64012;DHT22;50211;52.768;12.124;2022-11-20T00:08:47;0.50;99.90
64012;DHT22;50211;52.768;12.124;2022-11-20T00:11:16;0.50;99.90
64012;DHT22;50211;52.768;12.124;2022-11-20T00:13:46;0.50;99.90
64012;DHT22;50211;52.768;12.124;2022-11-20T00:16:14;0.50;99.90
64012;DHT22;50211;52.768;12.124;2022-11-20T00:18:40;0.50;99.90
64012;DHT22;50211;52.768;12.124;2022-11-20T00:21:11;0.50;99.90
64012;DHT22;50211;52.768;12.124;2022-11-20T00:23:37;0.40;99.90
64012;DHT22;50211;52.768;12.124;2022-11-20T00:26:07;0.40;99.90
64012;DHT22;50211;52.768;12.124;2022-11-20T00:28:34;0.40;99.90
64012;DHT22;50211;52.768;12.124;2022-11-20T00:31:08;0.40;99.90
64012;DHT22;50211;52.768;12.124;2022-11-20T00:33:34;0.40;99.90
64012;DHT22;50211;52.768;12.124;2022-11-20T00:36:11;0.40;99.90
64012;DHT22;50211;52.768;12.124;2022-11-20T00:38:37;0.30;99.90
64012;DHT22;50211;52.768;12.124;2022-11-20T00:41:06;0.40;99.90
64012;DHT22;50211;52.768;12.124;2022-11-20T00:43:32;0.30;99.90
64012;DHT22;50211;52.768;12.124;2022-11-20T00:45:58;0.30;99.90
64012;DHT22;50211;52.768;12.124;2022-11-20T00:48:24;0.30;99.90
64012;DHT22;50211;52.768;12.124;2022-11-20T00:50:50;0.30;99.90
64012;DHT22;50211;52.768;12.124;2022-11-20T00:53:15;0.20;99.90
64012;DHT22;50211;52.768;12.124;2022-11-20T00:55:41;0.20;99.90
64012;DHT22;50211;52.768;12.124;2022-11-20T00:58:06;0.20;99.90
64012;DHT22;50211;52.768;12.124;2022-11-20T01:00:32;0.20;99.90
64012;DHT22;50211;52.768;12.124;2022-11-20T01:02:57;0.20;99.90
64012;DHT22;50211;52.768;12.124;2022-11-20T01:05:23;0.20;99.90
64012;DHT22;50211;52.768;12.124;2022-11-20T01:07:48;0.20;99.90
64012;DHT22;50211;52.768;12.124;2022-11-20T01:10:14;0.20;99.90
64012;DHT22;50211;52.768;12.124;2022-11-20T01:12:39;0.30;99.90
64012;DHT22;50211;52.768;12.124;2022-11-20T01:15:05;0.10;99.90
64012;DHT22;50211;52.768;12.124;2022-11-20T01:17:31;0.10;99.90
64012;DHT22;50211;52.768;12.124;2022-11-20T01:19:57;0.10;99.90
64012;DHT22;50211;52.768;12.124;2022-11-20T01:22:22;0.10;99.90
64012;DHT22;50211;52.768;12.124;2022-11-20T01:24:48;0.10;99.90
64012;DHT22;50211;52.768;12.124;2022-11-20T01:27:13;0.00;99.90
64012;DHT22;50211;52.768;12.124;2022-11-20T01:29:39;0.10;99.90
64012;DHT22;50211;52.768;12.124;2022-11-20T01:32:04;0.00;99.90
64012;DHT22;50211;52.768;12.124;2022-11-20T01:34:30;0.10;99.90
64012;DHT22;50211;52.768;12.124;2022-11-20T01:36:55;0.10;99.90
64012;DHT22;50211;52.768;12.124;2022-11-20T01:39:25;0.00;99.90
64012;DHT22;50211;52.768;12.124;2022-11-20T01:41:52;0.00;99.90
64012;DHT22;50211;52.768;12.124;2022-11-20T01:44:58;0.00;99.90
64012;DHT22;50211;52.768;12.124;2022-11-20T01:47:45;0.00;99.90
64012;DHT22;50211;52.768;12.124;2022-11-20T01:50:18;0.00;99.90
64012;DHT22;50211;52.768;12.124;2022-11-20T01:52:58;-0.10;99.90
64012;DHT22;50211;52.768;12.124;2022-11-20T01:55:32;-0.10;99.90
64012;DHT22;50211;52.768;12.124;2022-11-20T01:57:59;-0.10;99.90
64012;DHT22;50211;52.768;12.124;2022-11-20T02:00:26;-0.10;99.90
64012;DHT22;50211;52.768;12.124;2022-11-20T02:02:55;-0.10;99.90
64012;DHT22;50211;52.768;12.124;2022-11-20T02:05:42;-0.10;99.90
64012;DHT22;50211;52.768;12.124;2022-11-20T02:08:08;-0.20;99.90
64012;DHT22;50211;52.768;12.124;2022-11-20T02:10:34;-0.10;99.90
64012;DHT22;50211;52.768;12.124;2022-11-20T02:13:00;-0.20;99.90
64012;DHT22;50211;52.768;12.124;2022-11-20T02:15:44;-0.20;99.90
64012;DHT22;50211;52.768;12.124;2022-11-20T02:18:11;-0.30;99.90
64012;DHT22;50211;52.768;12.124;2022-11-20T02:20:41;-0.30;99.90
64012;DHT22;50211;52.768;12.124;2022-11-20T02:25:36;-0.30;99.90
64012;DHT22;50211;52.768;12.124;2022-11-20T02:28:03;-0.40;99.90
64012;DHT22;50211;52.768;12.124;2022-11-20T02:30:28;-0.40;99.90
64012;DHT22;50211;52.768;12.124;2022-11-20T02:32:54;-0.40;99.90
64012;DHT22;50211;52.768;12.124;2022-11-20T02:37:48;-0.50;99.90
64012;DHT22;50211;52.768;12.124;2022-11-20T02:40:14;-0.50;99.90
64012;DHT22;50211;52.768;12.124;2022-11-20T02:42:39;-0.50;99.90
64012;DHT22;50211;52.768;12.124;2022-11-20T02:45:06;-0.60;99.90
64012;DHT22;50211;52.768;12.124;2022-11-20T02:47:32;-0.60;99.90
64012;DHT22;50211;52.768;12.124;2022-11-20T02:49:58;-0.60;99.90
64012;DHT22;50211;52.768;12.124;2022-11-20T02:52:24;-0.50;99.90
64012;DHT22;50211;52.768;12.124;2022-11-20T02:54:49;-0.60;99.90
64012;DHT22;50211;52.768;12.124;2022-11-20T02:57:15;-0.60;99.90
64012;DHT22;50211;52.768;12.124;2022-11-20T02:59:40;-0.70;99.90
64012;DHT22;50211;52.768;12.124;2022-11-20T03:02:06;-0.70;99.90
64012;DHT22;50211;52.768;12.124;2022-11-20T03:04:32;-0.70;99.90
64012;DHT22;50211;52.768;12.124;2022-11-20T03:06:57;-0.70;99.90
64012;DHT22;50211;52.768;12.124;2022-11-20T03:09:23;-0.80;99.90
64012;DHT22;50211;52.768;12.124;2022-11-20T03:11:48;-0.80;99.90
64012;DHT22;50211;52.768;12.124;2022-11-20T03:14:14;-0.80;99.90
64012;DHT22;50211;52.768;12.124;2022-11-20T03:16:39;-0.90;99.90
64012;DHT22;50211;52.768;12.124;2022-11-20T03:19:05;-0.80;99.90
64012;DHT22;50211;52.768;12.124;2022-11-20T03:21:32;-0.80;99.90
64012;DHT22;50211;52.768;12.124;2022-11-20T03:23:58;-0.90;99.90
64012;DHT22;50211;52.768;12.124;2022-11-20T03:26:25;-0.90;99.90
64012;DHT22;50211;52.768;12.124;2022-11-20T03:28:53;-0.90;99.90
64012;DHT22;50211;52.768;12.124;2022-11-20T03:31:21;-0.90;99.90
64012;DHT22;50211;52.768;12.124;2022-11-20T03:33:47;-0.90;99.90
64012;DHT22;50211;52.768;12.124;2022-11-20T03:36:15;-0.90;99.90
64012;DHT22;50211;52.768;12.124;2022-11-20T03:38:41;-0.90;99.90
64012;DHT22;50211;52.768;12.124;2022-11-20T03:41:09;-0.90;99.90
64012;DHT22;50211;52.768;12.124;2022-11-20T03:43:35;-0.90;99.90
64012;DHT22;50211;52.768;12.124;2022-11-20T03:46:01;-0.90;99.90
64012;DHT22;50211;52.768;12.124;2022-11-20T03:48:27;-0.80;99.90
64012;DHT22;50211;52.768;12.124;2022-11-20T03:51:06;-0.80;99.90
64012;DHT22;50211;52.768;12.124;2022-11-20T03:53:31;-0.80;99.90
64012;DHT22;50211;52.768;12.124;2022-11-20T03:55:57;-0.80;99.90
64012;DHT22;50211;52.768;12.124;2022-11-20T03:58:22;-0.80;99.90
64012;DHT22;50211;52.768;12.124;2022-11-20T04:00:48;-0.90;99.90
64012;DHT22;50211;52.768;12.124;2022-11-20T04:03:13;-0.80;99.90
64012;DHT22;50211;52.768;12.124;2022-11-20T04:05:38;-0.80;99.90
64012;DHT22;50211;52.768;12.124;2022-11-20T04:08:04;-0.80;99.90
64012;DHT22;50211;52.768;12.124;2022-11-20T04:10:30;-0.80;99.90
64012;DHT22;50211;52.768;12.124;2022-11-20T04:12:55;-0.80;99.90
64012;DHT22;50211;52.768;12.124;2022-11-20T04:15:21;-0.80;99.90
64012;DHT22;50211;52.768;12.124;2022-11-20T04:17:46;-0.80;99.90
64012;DHT22;50211;52.768;12.124;2022-11-20T04:20:12;-0.70;99.90
64012;DHT22;50211;52.768;12.124;2022-11-20T04:22:37;-0.70;99.90
64012;DHT22;50211;52.768;12.124;2022-11-20T04:25:03;-0.70;99.90
64012;DHT22;50211;52.768;12.124;2022-11-20T04:27:30;-0.60;99.90
64012;DHT22;50211;52.768;12.124;2022-11-20T04:29:55;-0.60;99.90
64012;DHT22;50211;52.768;12.124;2022-11-20T04:32:21;-0.50;99.90
64012;DHT22;50211;52.768;12.124;2022-11-20T04:34:46;-0.50;99.90
64012;DHT22;50211;52.768;12.124;2022-11-20T04:37:12;-0.50;99.90
64012;DHT22;50211;52.768;12.124;2022-11-20T04:39:37;-0.50;99.90
64012;DHT22;50211;52.768;12.124;2022-11-20T04:42:03;-0.50;99.90
64012;DHT22;50211;52.768;12.124;2022-11-20T04:44:47;-0.50;99.90
64012;DHT22;50211;52.768;12.124;2022-11-20T04:47:12;-0.50;99.90
64012;DHT22;50211;52.768;12.124;2022-11-20T04:49:38;-0.40;99.90
64012;DHT22;50211;52.768;12.124;2022-11-20T04:52:03;-0.40;99.90
64012;DHT22;50211;52.768;12.124;2022-11-20T04:54:29;-0.40;99.90
64012;DHT22;50211;52.768;12.124;2022-11-20T04:56:54;-0.40;99.90
64012;DHT22;50211;52.768;12.124;2022-11-20T04:59:20;-0.30;99.90
64012;DHT22;50211;52.768;12.124;2022-11-20T05:01:46;-0.30;99.90
64012;DHT22;50211;52.768;12.124;2022-11-20T05:04:12;-0.30;99.90
64012;DHT22;50211;52.768;12.124;2022-11-20T05:06:37;-0.30;99.90
64012;DHT22;50211;52.768;12.124;2022-11-20T05:09:03;-0.30;99.90
64012;DHT22;50211;52.768;12.124;2022-11-20T05:11:28;-0.30;99.90
64012;DHT22;50211;52.768;12.124;2022-11-20T05:13:54;-0.30;99.90
64012;DHT22;50211;52.768;12.124;2022-11-20T05:16:22;-0.30;99.90
64012;DHT22;50211;52.768;12.124;2022-11-20T05:18:48;-0.30;99.90
64012;DHT22;50211;52.768;12.124;2022-11-20T05:21:14;-0.30;99.90
64012;DHT22;50211;52.768;12.124;2022-11-20T05:23:41;-0.30;99.90
64012;DHT22;50211;52.768;12.124;2022-11-20T05:26:11;-0.30;99.90
64012;DHT22;50211;52.768;12.124;2022-11-20T05:28:37;-0.30;99.90
64012;DHT22;50211;52.768;12.124;2022-11-20T05:31:06;-0.30;99.90
64012;DHT22;50211;52.768;12.124;2022-11-20T05:33:33;-0.30;99.90
64012;DHT22;50211;52.768;12.124;2022-11-20T05:35:59;-0.40;99.90
64012;DHT22;50211;52.768;12.124;2022-11-20T05:38:24;-0.30;99.90
64012;DHT22;50211;52.768;12.124;2022-11-20T05:40:50;-0.40;99.90
64012;DHT22;50211;52.768;12.124;2022-11-20T05:43:15;-0.30;99.90
64012;DHT22;50211;52.768;12.124;2022-11-20T05:45:41;-0.40;99.90
64012;DHT22;50211;52.768;12.124;2022-11-20T05:48:06;-0.40;99.90
64012;DHT22;50211;52.768;12.124;2022-11-20T05:50:32;-0.30;99.90
64012;DHT22;50211;52.768;12.124;2022-11-20T05:52:58;-0.30;99.90
64012;DHT22;50211;52.768;12.124;2022-11-20T05:55:24;-0.30;99.90
64012;DHT22;50211;52.768;12.124;2022-11-20T05:57:52;-0.30;99.90
64012;DHT22;50211;52.768;12.124;2022-11-20T06:00:18;-0.30;99.90
64012;DHT22;50211;52.768;12.124;2022-11-20T06:02:43;-0.30;99.90
64012;DHT22;50211;52.768;12.124;2022-11-20T06:05:09;-0.30;99.90
64012;DHT22;50211;52.768;12.124;2022-11-20T06:07:34;-0.30;99.90
64012;DHT22;50211;52.768;12.124;2022-11-20T06:10:00;-0.30;99.90
64012;DHT22;50211;52.768;12.124;2022-11-20T06:12:25;-0.30;99.90
64012;DHT22;50211;52.768;12.124;2022-11-20T06:14:51;-0.30;99.90
64012;DHT22;50211;52.768;12.124;2022-11-20T06:17:17;-0.30;99.90
64012;DHT22;50211;52.768;12.124;2022-11-20T06:19:42;-0.30;99.90
64012;DHT22;50211;52.768;12.124;2022-11-20T06:22:08;-0.30;99.90
64012;DHT22;50211;52.768;12.124;2022-11-20T06:24:33;-0.30;99.90
64012;DHT22;50211;52.768;12.124;2022-11-20T06:26:59;-0.30;99.90
64012;DHT22;50211;52.768;12.124;2022-11-20T06:29:24;-0.30;99.90
64012;DHT22;50211;52.768;12.124;2022-11-20T06:31:49;-0.30;99.90
64012;DHT22;50211;52.768;12.124;2022-11-20T06:34:15;-0.30;99.90
64012;DHT22;50211;52.768;12.124;2022-11-20T06:36:41;-0.30;99.90
64012;DHT22;50211;52.768;12.124;2022-11-20T06:39:06;-0.30;99.90
64012;DHT22;50211;52.768;12.124;2022-11-20T06:41:32;-0.30;99.90
64012;DHT22;50211;52.768;12.124;2022-11-20T06:43:57;-0.20;99.90
64012;DHT22;50211;52.768;12.124;2022-11-20T06:46:23;-0.30;99.90
64012;DHT22;50211;52.768;12.124;2022-11-20T06:48:49;-0.30;99.90
64012;DHT22;50211;52.768;12.124;2022-11-20T06:51:15;-0.30;99.90
64012;DHT22;50211;52.768;12.124;2022-11-20T06:53:41;-0.20;99.90
64012;DHT22;50211;52.768;12.124;2022-11-20T06:56:07;-0.30;99.90
64012;DHT22;50211;52.768;12.124;2022-11-20T06:58:34;-0.20;99.90
64012;DHT22;50211;52.768;12.124;2022-11-20T07:01:01;-0.20;99.90
64012;DHT22;50211;52.768;12.124;2022-11-20T07:03:27;-0.20;99.90
64012;DHT22;50211;52.768;12.124;2022-11-20T07:05:57;-0.10;99.90
64012;DHT22;50211;52.768;12.124;2022-11-20T07:08:23;-0.10;99.90
64012;DHT22;50211;52.768;12.124;2022-11-20T07:10:48;-0.10;99.90
64012;DHT22;50211;52.768;12.124;2022-11-20T07:13:14;-0.10;99.90
64012;DHT22;50211;52.768;12.124;2022-11-20T07:15:39;-0.10;99.90
64012;DHT22;50211;52.768;12.124;2022-11-20T07:18:05;0.00;99.90
64012;DHT22;50211;52.768;12.124;2022-11-20T07:20:30;0.00;99.90
64012;DHT22;50211;52.768;12.124;2022-11-20T07:22:57;0.00;99.90
64012;DHT22;50211;52.768;12.124;2022-11-20T07:25:23;0.10;99.90
64012;DHT22;50211;52.768;12.124;2022-11-20T07:27:49;0.00;99.90
64012;DHT22;50211;52.768;12.124;2022-11-20T07:30:15;0.10;99.90
64012;DHT22;50211;52.768;12.124;2022-11-20T07:32:41;0.10;99.90
64012;DHT22;50211;52.768;12.124;2022-11-20T07:35:07;0.10;99.90
64012;DHT22;50211;52.768;12.124;2022-11-20T07:37:35;0.10;99.90
64012;DHT22;50211;52.768;12.124;2022-11-20T07:40:01;0.10;99.90
64012;DHT22;50211;52.768;12.124;2022-11-20T07:42:26;0.10;99.90
64012;DHT22;50211;52.768;12.124;2022-11-20T07:44:52;0.20;99.90
64012;DHT22;50211;52.768;12.124;2022-11-20T07:47:17;0.30;99.90
64012;DHT22;50211;52.768;12.124;2022-11-20T07:49:43;0.30;99.90
64012;DHT22;50211;52.768;12.124;2022-11-20T07:52:08;0.30;99.90
64012;DHT22;50211;52.768;12.124;2022-11-20T07:54:34;0.30;99.90
64012;DHT22;50211;52.768;12.124;2022-11-20T07:56:59;0.40;99.90
64012;DHT22;50211;52.768;12.124;2022-11-20T07:59:25;0.40;99.90
64012;DHT22;50211;52.768;12.124;2022-11-20T08:01:50;0.40;99.90
64012;DHT22;50211;52.768;12.124;2022-11-20T08:04:16;0.40;99.90
64012;DHT22;50211;52.768;12.124;2022-11-20T08:06:41;0.40;99.90
64012;DHT22;50211;52.768;12.124;2022-11-20T08:09:07;0.40;99.90
64012;DHT22;50211;52.768;12.124;2022-11-20T08:11:32;0.50;99.90
64012;DHT22;50211;52.768;12.124;2022-11-20T08:14:17;0.50;99.90
64012;DHT22;50211;52.768;12.124;2022-11-20T08:16:51;0.50;99.90
64012;DHT22;50211;52.768;12.124;2022-11-20T08:19:18;0.40;99.90
64012;DHT22;50211;52.768;12.124;2022-11-20T08:21:44;0.50;99.90
64012;DHT22;50211;52.768;12.124;2022-11-20T08:24:10;0.50;99.90
64012;DHT22;50211;52.768;12.124;2022-11-20T08:26:36;0.50;99.90
64012;DHT22;50211;52.768;12.124;2022-11-20T08:29:03;0.50;99.90
64012;DHT22;50211;52.768;12.124;2022-11-20T08:31:29;0.50;99.90
64012;DHT22;50211;52.768;12.124;2022-11-20T08:33:55;0.50;99.90
64012;DHT22;50211;52.768;12.124;2022-11-20T08:36:21;0.50;99.90
64012;DHT22;50211;52.768;12.124;2022-11-20T08:38:49;0.50;99.90
64012;DHT22;50211;52.768;12.124;2022-11-20T08:41:14;0.50;99.90
64012;DHT22;50211;52.768;12.124;2022-11-20T08:44:05;0.50;99.90
64012;DHT22;50211;52.768;12.124;2022-11-20T08:46:34;0.50;99.90
64012;DHT22;50211;52.768;12.124;2022-11-20T08:49:01;0.50;99.90
64012;DHT22;50211;52.768;12.124;2022-11-20T08:51:27;0.60;99.90
64012;DHT22;50211;52.768;12.124;2022-11-20T08:53:52;0.60;99.90
64012;DHT22;50211;52.768;12.124;2022-11-20T08:56:18;0.70;99.90
64012;DHT22;50211;52.768;12.124;2022-11-20T08:58:43;0.60;99.90
64012;DHT22;50211;52.768;12.124;2022-11-20T09:01:09;0.70;99.90
64012;DHT22;50211;52.768;12.124;2022-11-20T09:03:35;0.70;99.90
64012;DHT22;50211;52.768;12.124;2022-11-20T09:06:05;0.80;99.90
64012;DHT22;50211;52.768;12.124;2022-11-20T09:08:31;0.80;99.90
64012;DHT22;50211;52.768;12.124;2022-11-20T09:10:58;0.90;99.90
64012;DHT22;50211;52.768;12.124;2022-11-20T09:13:24;1.00;99.90
64012;DHT22;50211;52.768;12.124;2022-11-20T09:16:01;1.00;99.90
64012;DHT22;50211;52.768;12.124;2022-11-20T09:18:28;1.10;99.90
64012;DHT22;50211;52.768;12.124;2022-11-20T09:21:00;1.10;99.90
64012;DHT22;50211;52.768;12.124;2022-11-20T09:23:27;1.10;99.90
64012;DHT22;50211;52.768;12.124;2022-11-20T09:25:56;1.20;99.90
64012;DHT22;50211;52.768;12.124;2022-11-20T09:28:25;1.30;99.90
64012;DHT22;50211;52.768;12.124;2022-11-20T09:30:50;1.40;99.90
64012;DHT22;50211;52.768;12.124;2022-11-20T09:33:16;1.50;99.90
64012;DHT22;50211;52.768;12.124;2022-11-20T09:35:42;1.60;99.90
64012;DHT22;50211;52.768;12.124;2022-11-20T09:38:09;1.60;99.90
64012;DHT22;50211;52.768;12.124;2022-11-20T09:40:38;1.60;99.90
64012;DHT22;50211;52.768;12.124;2022-11-20T09:43:14;1.60;99.90
64012;DHT22;50211;52.768;12.124;2022-11-20T09:46:04;1.50;99.90
64012;DHT22;50211;52.768;12.124;2022-11-20T09:48:48;1.60;99.90
64012;DHT22;50211;52.768;12.124;2022-11-20T09:54:13;1.60;99.90
64012;DHT22;50211;52.768;12.124;2022-11-20T09:56:45;1.60;99.90
64012;DHT22;50211;52.768;12.124;2022-11-20T09:59:33;1.50;99.90
64012;DHT22;50211;52.768;12.124;2022-11-20T10:02:02;1.60;99.90
64012;DHT22;50211;52.768;12.124;2022-11-20T10:04:31;1.60;99.90
64012;DHT22;50211;52.768;12.124;2022-11-20T10:07:13;1.70;99.90
64012;DHT22;50211;52.768;12.124;2022-11-20T10:09:47;1.80;99.90
64012;DHT22;50211;52.768;12.124;2022-11-20T10:12:25;1.80;99.90
64012;DHT22;50211;52.768;12.124;2022-11-20T10:18:09;1.80;99.90
64012;DHT22;50211;52.768;12.124;2022-11-20T10:20:58;1.80;99.90
64012;DHT22;50211;52.768;12.124;2022-11-20T10:26:12;1.80;99.90
64012;DHT22;50211;52.768;12.124;2022-11-20T10:31:34;1.80;99.90
64012;DHT22;50211;52.768;12.124;2022-11-20T10:34:17;1.80;99.90
64012;DHT22;50211;52.768;12.124;2022-11-20T10:36:52;1.80;99.90
64012;DHT22;50211;52.768;12.124;2022-11-20T10:42:15;1.80;99.90
64012;DHT22;50211;52.768;12.124;2022-11-20T10:44:46;1.90;99.90
64012;DHT22;50211;52.768;12.124;2022-11-20T10:47:27;1.90;99.90
64012;DHT22;50211;52.768;12.124;2022-11-20T10:49:55;2.00;99.90
64012;DHT22;50211;52.768;12.124;2022-11-20T10:52:33;2.00;99.90
64012;DHT22;50211;52.768;12.124;2022-11-20T10:55:25;2.00;99.90
64012;DHT22;50211;52.768;12.124;2022-11-20T11:00:31;2.00;99.90
64012;DHT22;50211;52.768;12.124;2022-11-20T11:02:56;2.00;99.90
64012;DHT22;50211;52.768;12.124;2022-11-20T11:05:40;2.00;99.90
64012;DHT22;50211;52.768;12.124;2022-11-20T11:08:13;2.10;99.90
64012;DHT22;50211;52.768;12.124;2022-11-20T11:10:59;2.10;99.90
64012;DHT22;50211;52.768;12.124;2022-11-20T11:13:28;2.10;99.90
64012;DHT22;50211;52.768;12.124;2022-11-20T11:15:55;2.10;99.90
64012;DHT22;50211;52.768;12.124;2022-11-20T11:18:25;2.20;99.90
64012;DHT22;50211;52.768;12.124;2022-11-20T11:20:52;2.10;99.90
64012;DHT22;50211;52.768;12.124;2022-11-20T11:26:22;2.10;99.90
64012;DHT22;50211;52.768;12.124;2022-11-20T11:28:59;2.10;99.90
64012;DHT22;50211;52.768;12.124;2022-11-20T11:31:27;2.00;99.90
64012;DHT22;50211;52.768;12.124;2022-11-20T11:34:06;2.00;99.90
64012;DHT22;50211;52.768;12.124;2022-11-20T11:36:34;2.00;99.90
64012;DHT22;50211;52.768;12.124;2022-11-20T11:39:01;1.90;99.90
64012;DHT22;50211;52.768;12.124;2022-11-20T11:41:30;2.00;99.90
64012;DHT22;50211;52.768;12.124;2022-11-20T11:44:01;2.00;99.90
64012;DHT22;50211;52.768;12.124;2022-11-20T11:46:53;2.00;99.90
64012;DHT22;50211;52.768;12.124;2022-11-20T11:49:20;2.00;99.90
64012;DHT22;50211;52.768;12.124;2022-11-20T11:54:39;2.00;99.90
64012;DHT22;50211;52.768;12.124;2022-11-20T11:57:15;2.00;99.90
64012;DHT22;50211;52.768;12.124;2022-11-20T12:02:36;1.90;99.90
64012;DHT22;50211;52.768;12.124;2022-11-20T12:05:18;1.80;99.90
64012;DHT22;50211;52.768;12.124;2022-11-20T12:07:57;1.80;99.90
64012;DHT22;50211;52.768;12.124;2022-11-20T12:10:56;1.80;99.90
64012;DHT22;50211;52.768;12.124;2022-11-20T12:16:18;1.70;99.90
64012;DHT22;50211;52.768;12.124;2022-11-20T12:18:47;1.50;99.90
64012;DHT22;50211;52.768;12.124;2022-11-20T12:30:09;1.90;99.90
64012;DHT22;50211;52.768;12.124;2022-11-20T12:52:57;1.90;99.90
64012;DHT22;50211;52.768;12.124;2022-11-20T12:55:50;1.90;99.90
64012;DHT22;50211;52.768;12.124;2022-11-20T13:01:23;1.80;99.90
64012;DHT22;50211;52.768;12.124;2022-11-20T13:06:54;1.70;99.90
64012;DHT22;50211;52.768;12.124;2022-11-20T13:09:22;1.70;99.90
64012;DHT22;50211;52.768;12.124;2022-11-20T13:12:01;1.60;99.90
64012;DHT22;50211;52.768;12.124;2022-11-20T13:17:48;1.60;99.90
64012;DHT22;50211;52.768;12.124;2022-11-20T13:20:18;1.60;99.90
64012;DHT22;50211;52.768;12.124;2022-11-20T13:22:48;1.60;99.90
64012;DHT22;50211;52.768;12.124;2022-11-20T13:25:28;1.60;99.90
64012;DHT22;50211;52.768;12.124;2022-11-20T13:27:56;1.60;99.90
64012;DHT22;50211;52.768;12.124;2022-11-20T13:30:23;1.60;99.90
64012;DHT22;50211;52.768;12.124;2022-11-20T13:32:54;1.60;99.90
64012;DHT22;50211;52.768;12.124;2022-11-20T13:35:27;1.50;99.90
64012;DHT22;50211;52.768;12.124;2022-11-20T13:38:11;1.60;99.90
64012;DHT22;50211;52.768;12.124;2022-11-20T13:40:51;1.50;99.90
64012;DHT22;50211;52.768;12.124;2022-11-20T13:43:37;1.60;99.90
64012;DHT22;50211;52.768;12.124;2022-11-20T13:46:08;1.60;99.90
64012;DHT22;50211;52.768;12.124;2022-11-20T13:48:41;1.70;99.90
64012;DHT22;50211;52.768;12.124;2022-11-20T13:51:29;1.70;99.90
64012;DHT22;50211;52.768;12.124;2022-11-20T13:59:27;1.50;99.90
64012;DHT22;50211;52.768;12.124;2022-11-20T14:01:55;1.40;99.90
64012;DHT22;50211;52.768;12.124;2022-11-20T14:04:29;1.40;99.90
64012;DHT22;50211;52.768;12.124;2022-11-20T14:06:56;1.30;99.90
64012;DHT22;50211;52.768;12.124;2022-11-20T14:11:52;1.10;99.90
64012;DHT22;50211;52.768;12.124;2022-11-20T14:14:25;1.10;99.90
64012;DHT22;50211;52.768;12.124;2022-11-20T14:16:52;1.10;99.90
64012;DHT22;50211;52.768;12.124;2022-11-20T14:21:47;1.30;99.90
64012;DHT22;50211;52.768;12.124;2022-11-20T14:24:13;1.20;99.90
64012;DHT22;50211;52.768;12.124;2022-11-20T14:26:45;1.30;99.90
64012;DHT22;50211;52.768;12.124;2022-11-20T14:29:18;1.30;99.90
64012;DHT22;50211;52.768;12.124;2022-11-20T14:31:45;1.40;99.90
64012;DHT22;50211;52.768;12.124;2022-11-20T14:34:25;1.40;99.90
64012;DHT22;50211;52.768;12.124;2022-11-20T14:36:58;1.30;99.90
64012;DHT22;50211;52.768;12.124;2022-11-20T14:40:05;1.30;99.90
64012;DHT22;50211;52.768;12.124;2022-11-20T14:42:35;1.20;99.90
64012;DHT22;50211;52.768;12.124;2022-11-20T14:45:03;1.20;99.90
64012;DHT22;50211;52.768;12.124;2022-11-20T14:47:30;1.20;99.90
64012;DHT22;50211;52.768;12.124;2022-11-20T14:49:57;1.20;99.90
64012;DHT22;50211;52.768;12.124;2022-11-20T14:52:25;1.30;99.90
64012;DHT22;50211;52.768;12.124;2022-11-20T14:54:52;1.20;99.90
64012;DHT22;50211;52.768;12.124;2022-11-20T14:57:23;1.20;99.90
64012;DHT22;50211;52.768;12.124;2022-11-20T14:59:48;1.20;99.90
64012;DHT22;50211;52.768;12.124;2022-11-20T15:02:14;1.20;99.90
64012;DHT22;50211;52.768;12.124;2022-11-20T15:04:57;1.20;99.90
64012;DHT22;50211;52.768;12.124;2022-11-20T15:07:26;1.10;99.90
64012;DHT22;50211;52.768;12.124;2022-11-20T15:10:06;1.10;99.90
64012;DHT22;50211;52.768;12.124;2022-11-20T15:12:34;1.00;99.90
64012;DHT22;50211;52.768;12.124;2022-11-20T15:15:02;1.00;99.90
64012;DHT22;50211;52.768;12.124;2022-11-20T15:17:29;1.00;99.90
64012;DHT22;50211;52.768;12.124;2022-11-20T15:19:55;1.00;99.90
64012;DHT22;50211;52.768;12.124;2022-11-20T15:22:21;1.00;99.90
64012;DHT22;50211;52.768;12.124;2022-11-20T15:24:46;1.00;99.90
64012;DHT22;50211;52.768;12.124;2022-11-20T15:27:12;1.00;99.90
64012;DHT22;50211;52.768;12.124;2022-11-20T15:29:37;1.00;99.90
64012;DHT22;50211;52.768;12.124;2022-11-20T15:32:03;1.00;99.90
64012;DHT22;50211;52.768;12.124;2022-11-20T15:34:28;1.00;99.90
64012;DHT22;50211;52.768;12.124;2022-11-20T15:36:54;1.00;99.90
64012;DHT22;50211;52.768;12.124;2022-11-20T15:39:20;0.90;99.90
64012;DHT22;50211;52.768;12.124;2022-11-20T15:41:46;0.80;99.90
64012;DHT22;50211;52.768;12.124;2022-11-20T15:44:11;0.80;99.90
64012;DHT22;50211;52.768;12.124;2022-11-20T15:46:39;0.80;99.90
64012;DHT22;50211;52.768;12.124;2022-11-20T15:49:12;0.80;99.90
64012;DHT22;50211;52.768;12.124;2022-11-20T15:51:41;0.70;99.90
64012;DHT22;50211;52.768;12.124;2022-11-20T15:54:20;0.70;99.90
64012;DHT22;50211;52.768;12.124;2022-11-20T15:56:47;0.70;99.90
64012;DHT22;50211;52.768;12.124;2022-11-20T15:59:12;0.60;99.90
64012;DHT22;50211;52.768;12.124;2022-11-20T16:01:40;0.60;99.90
64012;DHT22;50211;52.768;12.124;2022-11-20T16:04:15;0.60;99.90
64012;DHT22;50211;52.768;12.124;2022-11-20T16:06:41;0.60;99.90
64012;DHT22;50211;52.768;12.124;2022-11-20T16:09:07;0.50;99.90
64012;DHT22;50211;52.768;12.124;2022-11-20T16:11:33;0.50;99.90
64012;DHT22;50211;52.768;12.124;2022-11-20T16:14:02;0.60;99.90
64012;DHT22;50211;52.768;12.124;2022-11-20T16:16:46;0.60;99.90
64012;DHT22;50211;52.768;12.124;2022-11-20T16:19:12;0.50;99.90
64012;DHT22;50211;52.768;12.124;2022-11-20T16:21:39;0.40;99.90
64012;DHT22;50211;52.768;12.124;2022-11-20T16:24:08;0.50;99.90
64012;DHT22;50211;52.768;12.124;2022-11-20T16:26:34;0.50;99.90
64012;DHT22;50211;52.768;12.124;2022-11-20T16:29:01;0.40;99.90
64012;DHT22;50211;52.768;12.124;2022-11-20T16:31:27;0.40;99.90
64012;DHT22;50211;52.768;12.124;2022-11-20T16:33:55;0.40;99.90
64012;DHT22;50211;52.768;12.124;2022-11-20T16:36:23;0.40;99.90
64012;DHT22;50211;52.768;12.124;2022-11-20T16:38:53;0.30;99.90
64012;DHT22;50211;52.768;12.124;2022-11-20T16:41:19;0.30;99.90
64012;DHT22;50211;52.768;12.124;2022-11-20T16:43:55;0.30;99.90
64012;DHT22;50211;52.768;12.124;2022-11-20T16:46:26;0.20;99.90
64012;DHT22;50211;52.768;12.124;2022-11-20T16:48:59;0.20;99.90
64012;DHT22;50211;52.768;12.124;2022-11-20T16:51:27;0.10;99.90
64012;DHT22;50211;52.768;12.124;2022-11-20T16:53:54;0.10;99.90
64012;DHT22;50211;52.768;12.124;2022-11-20T16:56:22;-0.10;99.90
64012;DHT22;50211;52.768;12.124;2022-11-20T16:58:48;-0.10;99.90